Time;durP1;ratioP1;P1;durP2;ratioP2;P2;SDS_P1;SDS_P2;PMS_P1;PMS_P2;Temp;Humidity;BMP_temperature;BMP_pressure;BME280_temperature;BME280_humidity;BME280_pressure;Samples;Min_cycle;Max_cycle;Signal;HPM_P1;HPM_P2
2022/12/17 13:07:18;;;;;;;;;;;0.80;99.90;;;;;;5108372;28;19972;-76
2022/12/17 13:09:49;;;;;;;;;;;0.70;99.90;;;;;;5110481;28;19915;-75
2022/12/17 13:12:14;;;;;;;;;;;0.70;99.90;;;;;;5101999;28;19916;-76
2022/12/17 13:14:49;;;;;;;;;;;0.80;99.90;;;;;;5101512;28;19920;-75
2022/12/17 13:17:15;;;;;;;;;;;0.80;99.90;;;;;;5102954;28;19985;-74
2022/12/17 13:19:48;;;;;;;;;;;0.80;99.90;;;;;;5102301;28;20311;-72
2022/12/17 13:22:14;;;;;;;;;;;0.80;99.90;;;;;;5103321;28;19912;-75
2022/12/17 13:24:46;;;;;;;;;;;0.70;99.90;;;;;;5101699;28;19923;-75
2022/12/17 13:27:44;;;;;;;;;;;0.70;99.90;;;;;;5101943;28;20306;-73
2022/12/17 13:30:16;;;;;;;;;;;0.60;99.90;;;;;;5077771;28;19916;-75
2022/12/17 13:33:02;;;;;;;;;;;0.60;99.90;;;;;;5071903;28;20362;-75
2022/12/17 13:35:46;;;;;;;;;;;0.60;99.90;;;;;;5058082;28;19919;-76
2022/12/17 13:38:20;;;;;;;;;;;0.50;99.90;;;;;;5069508;28;20303;-76
2022/12/17 13:40:53;;;;;;;;;;;0.40;99.90;;;;;;5071840;28;19915;-75
2022/12/17 13:43:20;;;;;;;;;;;0.40;99.90;;;;;;5066155;28;19924;-76
2022/12/17 13:45:46;;;;;;;;;;;0.40;99.90;;;;;;5051493;28;20303;-75
2022/12/17 13:48:20;;;;;;;;;;;0.40;99.90;;;;;;5070140;28;19951;-76
2022/12/17 13:50:52;;;;;;;;;;;0.40;99.90;;;;;;5068737;28;19923;-77
2022/12/17 13:53:17;;;;;;;;;;;0.40;99.90;;;;;;5070233;28;19917;-75
2022/12/17 13:55:48;;;;;;;;;;;0.40;99.90;;;;;;5087005;28;19916;-76
2022/12/17 13:58:30;;;;;;;;;;;0.30;99.90;;;;;;5070768;28;19917;-76
2022/12/17 14:01:09;;;;;;;;;;;0.20;99.90;;;;;;5069261;28;19920;-73
2022/12/17 14:03:35;;;;;;;;;;;0.20;99.90;;;;;;5068276;28;19916;-78
2022/12/17 14:06:01;;;;;;;;;;;0.20;99.90;;;;;;5088427;28;19912;-75
2022/12/17 14:08:29;;;;;;;;;;;0.20;99.90;;;;;;5092478;27;20191;-74
2022/12/17 14:13:56;;;;;;;;;;;0.10;99.90;;;;;;5039704;28;20262;-75
2022/12/17 14:16:22;;;;;;;;;;;0.00;99.90;;;;;;5085873;28;19961;-76
2022/12/17 14:18:57;;;;;;;;;;;0.00;99.90;;;;;;5095088;28;19965;-75
2022/12/17 14:21:23;;;;;;;;;;;0.00;99.90;;;;;;5102561;28;19916;-72
2022/12/17 14:23:50;;;;;;;;;;;0.00;99.90;;;;;;5101421;28;19919;-77
2022/12/17 14:26:16;;;;;;;;;;;-0.10;99.90;;;;;;5103445;28;19974;-75
2022/12/17 14:28:46;;;;;;;;;;;-0.10;99.90;;;;;;5111316;28;19920;-73
2022/12/17 14:31:18;;;;;;;;;;;-0.20;99.90;;;;;;5105134;28;19916;-74
2022/12/17 14:33:44;;;;;;;;;;;-0.30;99.90;;;;;;5093175;28;19922;-75
2022/12/17 14:36:18;;;;;;;;;;;-0.30;99.90;;;;;;5098452;28;19920;-72
2022/12/17 14:38:58;;;;;;;;;;;-0.30;99.90;;;;;;5108355;28;19911;-75
2022/12/17 14:44:16;;;;;;;;;;;-0.40;99.90;;;;;;5102892;28;19957;-75
2022/12/17 14:46:41;;;;;;;;;;;-0.50;99.90;;;;;;5104496;28;20279;-74
2022/12/17 14:49:14;;;;;;;;;;;-0.60;99.90;;;;;;5106701;27;19951;-76
2022/12/17 14:51:41;;;;;;;;;;;-0.70;99.90;;;;;;5109600;28;19911;-75
2022/12/17 14:54:12;;;;;;;;;;;-0.70;99.90;;;;;;5107729;28;19914;-74
2022/12/17 14:56:38;;;;;;;;;;;-0.70;99.90;;;;;;5107641;28;20286;-77
2022/12/17 14:59:04;;;;;;;;;;;-0.80;99.90;;;;;;5107132;28;20222;-76
2022/12/17 15:01:30;;;;;;;;;;;-0.90;99.90;;;;;;5109134;28;19934;-72
2022/12/17 15:03:55;;;;;;;;;;;-1.00;99.90;;;;;;5111146;28;19919;-72
2022/12/17 15:06:21;;;;;;;;;;;-1.00;99.90;;;;;;5107525;28;20321;-76
2022/12/17 15:08:48;;;;;;;;;;;-1.00;99.90;;;;;;5108898;28;19967;-72
2022/12/17 15:11:15;;;;;;;;;;;-1.10;99.90;;;;;;5110980;28;19915;-72
2022/12/17 15:13:41;;;;;;;;;;;-1.10;99.90;;;;;;5110319;28;20306;-72
2022/12/17 15:16:07;;;;;;;;;;;-1.20;99.90;;;;;;5096989;28;19954;-73
2022/12/17 15:18:33;;;;;;;;;;;-1.30;99.90;;;;;;5103759;28;19999;-72
2022/12/17 15:20:59;;;;;;;;;;;-1.30;99.90;;;;;;5113131;28;19911;-73
2022/12/17 15:23:24;;;;;;;;;;;-1.40;99.90;;;;;;5106488;28;20331;-73
2022/12/17 15:25:51;;;;;;;;;;;-1.50;99.90;;;;;;5108865;27;20341;-72
2022/12/17 15:28:17;;;;;;;;;;;-1.60;99.90;;;;;;5110902;28;19946;-73
2022/12/17 15:30:43;;;;;;;;;;;-1.60;99.90;;;;;;5110371;28;19908;-76
2022/12/17 15:33:09;;;;;;;;;;;-1.60;99.90;;;;;;5109991;28;19916;-72
2022/12/17 15:35:35;;;;;;;;;;;-1.70;99.90;;;;;;5116455;27;19912;-72
2022/12/17 15:38:01;;;;;;;;;;;-1.70;99.90;;;;;;5115179;28;19907;-77
2022/12/17 15:40:26;;;;;;;;;;;-1.70;99.90;;;;;;5104804;28;19911;-71
2022/12/17 15:43:10;;;;;;;;;;;-1.70;99.90;;;;;;5098412;28;19919;-78
2022/12/17 15:45:41;;;;;;;;;;;-1.80;99.90;;;;;;5077671;27;20419;-72
2022/12/17 15:48:07;;;;;;;;;;;-1.80;99.90;;;;;;5108530;28;20007;-78
2022/12/17 15:50:32;;;;;;;;;;;-1.90;99.90;;;;;;5101770;28;20135;-71
2022/12/17 15:52:58;;;;;;;;;;;-1.90;99.90;;;;;;5103291;28;19916;-78
2022/12/17 15:55:23;;;;;;;;;;;-2.00;99.90;;;;;;5105955;28;20357;-72
2022/12/17 15:57:49;;;;;;;;;;;-2.00;99.90;;;;;;5103868;28;19915;-78
2022/12/17 16:00:15;;;;;;;;;;;-2.10;99.90;;;;;;5102944;28;19916;-75
2022/12/17 16:02:40;;;;;;;;;;;-2.10;99.90;;;;;;5104750;28;20218;-77
2022/12/17 16:05:06;;;;;;;;;;;-2.10;99.90;;;;;;5100471;28;19919;-77
2022/12/17 16:07:32;;;;;;;;;;;-2.20;99.90;;;;;;5100698;28;19923;-74
2022/12/17 16:09:58;;;;;;;;;;;-2.20;99.90;;;;;;5106496;27;19912;-78
2022/12/17 16:12:23;;;;;;;;;;;-2.20;99.90;;;;;;5106306;28;19918;-77
2022/12/17 16:14:49;;;;;;;;;;;-2.20;99.90;;;;;;5108978;28;19920;-78
2022/12/17 16:17:14;;;;;;;;;;;-2.30;99.90;;;;;;5099774;28;20337;-73
2022/12/17 16:19:55;;;;;;;;;;;-2.30;99.90;;;;;;5106938;28;19915;-77
2022/12/17 16:22:21;;;;;;;;;;;-2.30;99.90;;;;;;5109647;28;19907;-75
2022/12/17 16:24:46;;;;;;;;;;;-2.40;99.90;;;;;;5105179;28;19908;-79
2022/12/17 16:27:12;;;;;;;;;;;-2.50;99.90;;;;;;5130389;27;19920;-77
2022/12/17 16:29:37;;;;;;;;;;;-2.50;99.90;;;;;;5099853;28;20199;-79
2022/12/17 16:32:03;;;;;;;;;;;-2.50;99.90;;;;;;5110592;28;19912;-78
2022/12/17 16:34:29;;;;;;;;;;;-2.50;99.90;;;;;;5100137;28;19920;-72
2022/12/17 16:36:54;;;;;;;;;;;-2.50;99.90;;;;;;5101835;28;19916;-78
2022/12/17 16:39:20;;;;;;;;;;;-2.40;99.90;;;;;;5138085;27;19919;-78
2022/12/17 16:41:45;;;;;;;;;;;-2.40;99.90;;;;;;5098758;27;19912;-79
2022/12/17 16:44:11;;;;;;;;;;;-2.40;99.90;;;;;;5100806;28;20007;-80
2022/12/17 16:46:40;;;;;;;;;;;-2.40;99.90;;;;;;5095545;27;19965;-79
2022/12/17 16:49:07;;;;;;;;;;;-2.30;99.90;;;;;;5094462;27;20354;-79
2022/12/17 16:51:32;;;;;;;;;;;-2.30;99.90;;;;;;5102569;27;19920;-72
2022/12/17 16:53:58;;;;;;;;;;;-2.30;99.90;;;;;;5099610;28;19965;-72
2022/12/17 16:56:26;;;;;;;;;;;-2.20;99.90;;;;;;5107745;27;19955;-72
2022/12/17 16:58:52;;;;;;;;;;;-2.20;99.90;;;;;;5106923;28;19938;-71
2022/12/17 17:01:26;;;;;;;;;;;-2.10;99.90;;;;;;5103066;27;20254;-77
2022/12/17 17:03:51;;;;;;;;;;;-2.10;99.90;;;;;;5109566;28;19962;-78
2022/12/17 17:06:17;;;;;;;;;;;-2.10;99.90;;;;;;5109903;28;19959;-71
2022/12/17 17:08:43;;;;;;;;;;;-2.10;99.90;;;;;;5105684;28;20007;-72
2022/12/17 17:11:10;;;;;;;;;;;-2.10;99.90;;;;;;5111623;28;20014;-78
2022/12/17 17:13:36;;;;;;;;;;;-2.10;99.90;;;;;;5113636;28;19992;-72
2022/12/17 17:16:01;;;;;;;;;;;-2.10;99.90;;;;;;5105714;27;20171;-79
2022/12/17 17:18:27;;;;;;;;;;;-2.10;99.90;;;;;;5111274;28;19919;-72
2022/12/17 17:20:54;;;;;;;;;;;-2.20;99.90;;;;;;5110228;28;19916;-72
2022/12/17 17:23:19;;;;;;;;;;;-2.20;99.90;;;;;;5112142;28;19915;-72
2022/12/17 17:25:45;;;;;;;;;;;-2.20;99.90;;;;;;5106360;27;20191;-79
2022/12/17 17:28:11;;;;;;;;;;;-2.20;99.90;;;;;;5111879;28;19920;-79
2022/12/17 17:30:36;;;;;;;;;;;-2.20;99.90;;;;;;5110751;28;19908;-77
2022/12/17 17:33:02;;;;;;;;;;;-2.10;99.90;;;;;;5109723;28;19920;-75
2022/12/17 17:35:27;;;;;;;;;;;-2.10;99.90;;;;;;5108277;27;19949;-77
2022/12/17 17:37:53;;;;;;;;;;;-2.10;99.90;;;;;;5097179;28;20345;-79
2022/12/17 17:40:18;;;;;;;;;;;-2.10;99.90;;;;;;5111107;28;19942;-79
2022/12/17 17:42:44;;;;;;;;;;;-2.10;99.90;;;;;;5105840;28;20084;-72
2022/12/17 17:45:10;;;;;;;;;;;-2.10;99.90;;;;;;5108890;27;20027;-79
2022/12/17 17:47:35;;;;;;;;;;;-2.20;99.90;;;;;;5113433;28;19926;-72
2022/12/17 17:50:01;;;;;;;;;;;-2.20;99.90;;;;;;5106293;27;19944;-79
2022/12/17 17:52:26;;;;;;;;;;;-2.20;99.90;;;;;;5113432;28;19912;-73
2022/12/17 17:54:53;;;;;;;;;;;-2.30;99.90;;;;;;5106358;28;20800;-72
2022/12/17 17:57:18;;;;;;;;;;;-2.30;99.90;;;;;;5102519;28;20230;-72
2022/12/17 17:59:44;;;;;;;;;;;-2.40;99.90;;;;;;5109756;27;19922;-78
2022/12/17 18:02:09;;;;;;;;;;;-2.40;99.90;;;;;;5114154;28;20340;-77
2022/12/17 18:04:35;;;;;;;;;;;-2.50;99.90;;;;;;5111804;28;20003;-73
2022/12/17 18:07:00;;;;;;;;;;;-2.50;99.90;;;;;;5142659;27;19959;-77
2022/12/17 18:09:27;;;;;;;;;;;-2.50;99.90;;;;;;5103664;27;20325;-75
2022/12/17 18:11:52;;;;;;;;;;;-2.50;99.90;;;;;;5111318;28;19919;-73
2022/12/17 18:14:18;;;;;;;;;;;-2.50;99.90;;;;;;5111365;28;19919;-78
2022/12/17 18:16:44;;;;;;;;;;;-2.40;99.90;;;;;;5105552;28;20002;-77
2022/12/17 18:19:12;;;;;;;;;;;-2.40;99.90;;;;;;5106246;28;20588;-78
2022/12/17 18:21:37;;;;;;;;;;;-2.40;99.90;;;;;;5109807;28;19911;-78
2022/12/17 18:24:11;;;;;;;;;;;-2.50;99.90;;;;;;5111890;28;19956;-73
2022/12/17 18:26:41;;;;;;;;;;;-2.50;99.90;;;;;;5104745;28;20218;-78
2022/12/17 18:29:27;;;;;;;;;;;-2.50;99.90;;;;;;5107943;27;19949;-79
2022/12/17 18:31:53;;;;;;;;;;;-2.50;99.90;;;;;;5111394;28;19915;-73
2022/12/17 18:34:21;;;;;;;;;;;-2.50;99.90;;;;;;5111620;28;20006;-72
2022/12/17 18:36:46;;;;;;;;;;;-2.50;99.90;;;;;;5112501;28;20206;-72
2022/12/17 18:39:13;;;;;;;;;;;-2.50;99.90;;;;;;5092307;28;19934;-71
2022/12/17 18:44:24;;;;;;;;;;;-2.50;99.90;;;;;;5106219;28;19927;-78
2022/12/17 18:46:49;;;;;;;;;;;-2.50;99.90;;;;;;5110980;28;19955;-78
2022/12/17 18:49:16;;;;;;;;;;;-2.50;99.90;;;;;;5113670;28;19958;-72
2022/12/17 18:51:43;;;;;;;;;;;-2.40;99.90;;;;;;5109504;28;19916;-79
2022/12/17 18:54:12;;;;;;;;;;;-2.50;99.90;;;;;;5112689;28;19908;-78
2022/12/17 18:56:38;;;;;;;;;;;-2.40;99.90;;;;;;5104492;27;19916;-78
2022/12/17 18:59:04;;;;;;;;;;;-2.50;99.90;;;;;;5112284;28;19924;-72
2022/12/17 19:01:31;;;;;;;;;;;-2.50;99.90;;;;;;5098128;28;20300;-71
2022/12/17 19:04:00;;;;;;;;;;;-2.40;99.90;;;;;;5097729;27;19916;-79
2022/12/17 19:06:25;;;;;;;;;;;-2.40;99.90;;;;;;5097059;28;20331;-72
2022/12/17 19:08:51;;;;;;;;;;;-2.40;99.90;;;;;;5093743;28;19912;-72
2022/12/17 19:11:18;;;;;;;;;;;-2.60;99.90;;;;;;5097320;28;20329;-72
2022/12/17 19:13:44;;;;;;;;;;;-2.60;99.90;;;;;;5096084;28;20200;-78
2022/12/17 19:16:11;;;;;;;;;;;-2.60;99.90;;;;;;5102604;28;19923;-72
2022/12/17 19:18:37;;;;;;;;;;;-2.60;99.90;;;;;;5103952;28;19924;-71
2022/12/17 19:21:03;;;;;;;;;;;-2.60;99.90;;;;;;5103193;28;19951;-73
2022/12/17 19:23:29;;;;;;;;;;;-2.60;99.90;;;;;;5093626;28;20564;-72
2022/12/17 19:25:55;;;;;;;;;;;-2.60;99.90;;;;;;5094909;28;19919;-73
2022/12/17 19:28:21;;;;;;;;;;;-2.60;99.90;;;;;;5097625;28;19966;-78
2022/12/17 19:30:47;;;;;;;;;;;-2.70;99.90;;;;;;5096563;28;19912;-72
2022/12/17 19:33:12;;;;;;;;;;;-2.70;99.90;;;;;;5104256;28;19923;-72
2022/12/17 19:35:38;;;;;;;;;;;-2.60;99.90;;;;;;5096065;28;19921;-78
2022/12/17 19:38:03;;;;;;;;;;;-2.60;99.90;;;;;;5100538;28;20017;-72
2022/12/17 19:40:29;;;;;;;;;;;-2.50;99.90;;;;;;5104978;28;19932;-72
2022/12/17 19:42:55;;;;;;;;;;;-2.60;99.90;;;;;;5114944;28;19943;-72
2022/12/17 19:45:20;;;;;;;;;;;-2.60;99.90;;;;;;5099450;28;19912;-79
2022/12/17 19:47:46;;;;;;;;;;;-2.50;99.90;;;;;;5099861;28;19927;-73
2022/12/17 19:50:12;;;;;;;;;;;-2.60;99.90;;;;;;5098267;28;19923;-72
2022/12/17 19:52:37;;;;;;;;;;;-2.60;99.90;;;;;;5094414;28;19955;-80
2022/12/17 19:55:03;;;;;;;;;;;-2.60;99.90;;;;;;5126911;27;19912;-73
2022/12/17 19:57:29;;;;;;;;;;;-2.50;99.90;;;;;;5100600;28;19912;-79
2022/12/17 19:59:54;;;;;;;;;;;-2.50;99.90;;;;;;5107508;28;19920;-72
2022/12/17 20:02:20;;;;;;;;;;;-2.60;99.90;;;;;;5101239;28;19912;-72
2022/12/17 20:04:46;;;;;;;;;;;-2.60;99.90;;;;;;5103041;28;20265;-78
2022/12/17 20:07:11;;;;;;;;;;;-2.60;99.90;;;;;;5107896;28;19919;-79
2022/12/17 20:09:37;;;;;;;;;;;-2.50;99.90;;;;;;5110771;27;19908;-79
2022/12/17 20:12:02;;;;;;;;;;;-2.50;99.90;;;;;;5111554;28;19916;-74
2022/12/17 20:14:28;;;;;;;;;;;-2.60;99.90;;;;;;5110851;28;19915;-79
2022/12/17 20:16:55;;;;;;;;;;;-2.60;99.90;;;;;;5145256;27;19912;-78
2022/12/17 20:19:22;;;;;;;;;;;-2.50;99.90;;;;;;5118054;27;20306;-79
2022/12/17 20:21:48;;;;;;;;;;;-2.50;99.90;;;;;;5109175;27;19911;-72
2022/12/17 20:24:14;;;;;;;;;;;-2.50;99.90;;;;;;5112446;28;19914;-72
2022/12/17 20:26:39;;;;;;;;;;;-2.60;99.90;;;;;;5117070;28;20034;-79
2022/12/17 20:29:06;;;;;;;;;;;-2.50;99.90;;;;;;5112213;27;19996;-73
2022/12/17 20:31:32;;;;;;;;;;;-2.60;99.90;;;;;;5104835;28;19915;-79
2022/12/17 20:33:59;;;;;;;;;;;-2.60;99.90;;;;;;5097197;28;20007;-78
2022/12/17 20:36:24;;;;;;;;;;;-2.60;99.90;;;;;;5099930;28;20031;-72
2022/12/17 20:38:50;;;;;;;;;;;-2.60;99.90;;;;;;5114820;28;20002;-72
2022/12/17 20:41:21;;;;;;;;;;;-2.60;99.90;;;;;;5116647;28;19915;-79
2022/12/17 20:43:46;;;;;;;;;;;-2.60;99.90;;;;;;5116367;28;19914;-73
2022/12/17 20:46:12;;;;;;;;;;;-2.60;99.90;;;;;;5087409;27;20026;-72
2022/12/17 20:48:39;;;;;;;;;;;-2.60;99.90;;;;;;5103043;27;19923;-75
2022/12/17 20:51:12;;;;;;;;;;;-2.60;99.90;;;;;;5113205;28;19912;-72
2022/12/17 20:53:38;;;;;;;;;;;-2.60;99.90;;;;;;5112005;27;19915;-72
2022/12/17 20:56:08;;;;;;;;;;;-2.60;99.90;;;;;;5097567;28;19912;-73
2022/12/17 20:58:34;;;;;;;;;;;-2.60;99.90;;;;;;5107162;28;20219;-78
2022/12/17 21:01:04;;;;;;;;;;;-2.70;99.90;;;;;;5109196;28;19959;-76
2022/12/17 21:03:31;;;;;;;;;;;-2.60;99.90;;;;;;5102927;27;20011;-73
2022/12/17 21:06:02;;;;;;;;;;;-2.70;99.90;;;;;;5089565;27;19908;-71
2022/12/17 21:08:27;;;;;;;;;;;-2.70;99.90;;;;;;5106106;28;19922;-72
2022/12/17 21:10:56;;;;;;;;;;;-2.70;99.90;;;;;;5101631;28;19909;-73
2022/12/17 21:13:28;;;;;;;;;;;-2.70;99.90;;;;;;5100292;28;19912;-79
2022/12/17 21:15:53;;;;;;;;;;;-2.70;99.90;;;;;;5102805;28;20172;-73
2022/12/17 21:18:19;;;;;;;;;;;-2.70;99.90;;;;;;5103667;28;19923;-72
2022/12/17 21:20:58;;;;;;;;;;;-2.70;99.90;;;;;;5116700;28;19999;-70
2022/12/17 21:23:25;;;;;;;;;;;-2.70;99.90;;;;;;5104962;27;19928;-75
2022/12/17 21:26:01;;;;;;;;;;;-2.70;99.90;;;;;;5112496;28;19908;-72
2022/12/17 21:28:26;;;;;;;;;;;-2.70;99.90;;;;;;5104747;28;19919;-72
2022/12/17 21:30:52;;;;;;;;;;;-2.70;99.90;;;;;;5101428;28;19916;-72
2022/12/17 21:33:17;;;;;;;;;;;-2.70;99.90;;;;;;5097744;28;19920;-72
2022/12/17 21:35:43;;;;;;;;;;;-2.80;99.90;;;;;;5096974;27;19916;-71
2022/12/17 21:38:10;;;;;;;;;;;-2.80;99.90;;;;;;5098233;28;20446;-79
2022/12/17 21:40:36;;;;;;;;;;;-2.80;99.90;;;;;;5096464;28;19939;-72
2022/12/17 21:43:02;;;;;;;;;;;-2.90;99.90;;;;;;5099938;28;19908;-79
2022/12/17 21:45:38;;;;;;;;;;;-2.80;99.90;;;;;;5101062;28;20006;-71
2022/12/17 21:48:04;;;;;;;;;;;-2.80;99.90;;;;;;5096229;28;19927;-72
2022/12/17 21:50:31;;;;;;;;;;;-2.80;99.90;;;;;;5096527;27;19961;-79
2022/12/17 21:52:57;;;;;;;;;;;-2.90;99.90;;;;;;5095400;28;19919;-80
2022/12/17 21:55:22;;;;;;;;;;;-2.90;99.90;;;;;;5095848;28;20246;-71
2022/12/17 21:57:48;;;;;;;;;;;-2.90;99.90;;;;;;5096705;28;19980;-72
2022/12/17 22:00:15;;;;;;;;;;;-3.00;99.90;;;;;;5106348;27;20268;-71
2022/12/17 22:02:40;;;;;;;;;;;-3.00;99.90;;;;;;5112708;28;20285;-72
2022/12/17 22:05:06;;;;;;;;;;;-2.90;99.90;;;;;;5095950;28;19991;-72
2022/12/17 22:07:32;;;;;;;;;;;-2.90;99.90;;;;;;5100583;28;20202;-79
2022/12/17 22:09:57;;;;;;;;;;;-2.90;99.90;;;;;;5098242;28;20264;-79
2022/12/17 22:15:09;;;;;;;;;;;-3.00;99.90;;;;;;5100586;28;19919;-79
2022/12/17 22:17:36;;;;;;;;;;;-3.00;99.90;;;;;;5097979;28;19938;-72
2022/12/17 22:20:01;;;;;;;;;;;-3.00;99.90;;;;;;5104629;28;19916;-80
2022/12/17 22:22:27;;;;;;;;;;;-3.00;99.90;;;;;;5116271;27;19916;-72
2022/12/17 22:24:53;;;;;;;;;;;-3.00;99.90;;;;;;5101849;28;19916;-73
2022/12/17 22:27:18;;;;;;;;;;;-3.10;99.90;;;;;;5101355;28;20252;-72
2022/12/17 22:35:12;;;;;;;;;;;-3.10;99.90;;;;;;5099784;28;20152;-72
2022/12/17 22:37:37;;;;;;;;;;;-3.10;99.90;;;;;;5102730;28;19912;-72
2022/12/17 22:40:03;;;;;;;;;;;-3.10;99.90;;;;;;5099588;28;20315;-71
2022/12/17 22:45:13;;;;;;;;;;;-3.10;99.90;;;;;;5101681;28;19930;-72
2022/12/17 22:47:39;;;;;;;;;;;-3.10;99.90;;;;;;5098715;28;20003;-80
2022/12/17 22:50:04;;;;;;;;;;;-3.10;99.90;;;;;;5099349;27;19916;-73
2022/12/17 22:52:30;;;;;;;;;;;-3.10;99.90;;;;;;5097932;28;19919;-78
2022/12/17 22:54:56;;;;;;;;;;;-3.10;99.90;;;;;;5098771;28;19969;-72
2022/12/17 22:57:21;;;;;;;;;;;-3.20;99.90;;;;;;5101989;28;19919;-80
2022/12/17 22:59:47;;;;;;;;;;;-3.20;99.90;;;;;;5098175;27;19916;-72
2022/12/17 23:02:15;;;;;;;;;;;-3.30;99.90;;;;;;5098320;28;20236;-80
2022/12/17 23:04:41;;;;;;;;;;;-3.30;99.90;;;;;;5098182;28;19916;-73
2022/12/17 23:07:07;;;;;;;;;;;-3.30;99.90;;;;;;5102405;28;20322;-73
2022/12/17 23:09:32;;;;;;;;;;;-3.40;99.90;;;;;;5101600;28;19931;-73
2022/12/17 23:12:49;;;;;;;;;;;-3.40;99.90;;;;;;5098972;28;19912;-80
2022/12/17 23:14:43;;;;;;;;;;;-3.40;99.90;;;;;;5100066;28;19948;-80
2022/12/17 23:17:09;;;;;;;;;;;-3.40;99.90;;;;;;5100746;28;20020;-72
2022/12/17 23:19:34;;;;;;;;;;;-3.40;99.90;;;;;;5096807;28;19920;-73
2022/12/17 23:22:00;;;;;;;;;;;-3.40;99.90;;;;;;5093447;27;20611;-72
2022/12/17 23:24:25;;;;;;;;;;;-3.30;99.90;;;;;;5103688;28;20226;-72
2022/12/17 23:26:51;;;;;;;;;;;-3.30;99.90;;;;;;5101374;28;19912;-72
2022/12/17 23:29:16;;;;;;;;;;;-3.30;99.90;;;;;;5097155;28;19934;-72
2022/12/17 23:31:42;;;;;;;;;;;-3.40;99.90;;;;;;5098887;28;20333;-72
2022/12/17 23:34:07;;;;;;;;;;;-3.30;99.90;;;;;;5101149;28;19968;-72
2022/12/17 23:36:33;;;;;;;;;;;-3.30;99.90;;;;;;5099210;28;19916;-73
2022/12/17 23:38:59;;;;;;;;;;;-3.30;99.90;;;;;;5101225;28;20034;-72
2022/12/17 23:41:26;;;;;;;;;;;-3.30;99.90;;;;;;5106702;28;20011;-72
2022/12/17 23:43:51;;;;;;;;;;;-3.30;99.90;;;;;;5103569;27;19920;-72
2022/12/17 23:46:17;;;;;;;;;;;-3.30;99.90;;;;;;5105311;27;19931;-72
2022/12/17 23:48:44;;;;;;;;;;;-3.30;99.90;;;;;;5115457;28;20006;-72
2022/12/17 23:51:09;;;;;;;;;;;-3.30;99.90;;;;;;5102404;28;20203;-79
2022/12/17 23:53:36;;;;;;;;;;;-3.30;99.90;;;;;;5110560;28;19914;-72
2022/12/17 23:56:08;;;;;;;;;;;-3.40;99.90;;;;;;5113342;28;19916;-72
2022/12/17 23:58:35;;;;;;;;;;;-3.40;99.90;;;;;;5103879;28;19919;-72
